Airport View

Enter AWOS ICAO identifier for current METAR.

ex. KFNL

KARA 261153Z 10SM CLR 24/23 A3013 RMK AO2 SLP202 T02440228 10244 20239 53015

26 Jun 2019 12:19

Frequency: 133.325

Phone: 337-365-0128

Other Area AWOS: KIYA - KLFT - K7R4 - KOPL

TAF KARA 261121Z 2612/2712 VRB04KT P6SM OVC200 FM261600 15009KT P6SM VCTS SCT030CB OVC200 FM261800 17010KT P6SM VCTS SCT030CB OVC200 FM270100 VRB04KT P6SM BKN200